Time;durP1;ratioP1;P1;durP2;ratioP2;P2;SDS_P1;SDS_P2;PMS_P1;PMS_P2;Temp;Humidity;BMP_temperature;BMP_pressure;BME280_temperature;BME280_humidity;BME280_pressure;Samples;Min_cycle;Max_cycle;Signal;HPM_P1;HPM_P2
2021/08/10 00:00:44;;;;;;;;;;;;;;;;;;2109352;28;797;-83
2021/08/10 00:01:45;;;;;;;;;;;;;;;;;;2109414;28;1765;-84
2021/08/10 00:02:47;;;;;;;;;;;;;;;;;;2100671;28;1444;-86
2021/08/10 00:03:49;;;;;;;;;;;;;;;;;;2108835;28;1216;-84
2021/08/10 00:04:51;;;;;;;;;;;;;;;;;;2108934;28;1187;-84
2021/08/10 00:05:53;;;;;;;;;;;;;;;;;;2106231;28;1924;-84
2021/08/10 00:06:54;;;;;;;;;;;;;;;;;;2100740;28;1516;-84
2021/08/10 00:07:56;;;;;;;;;;;;;;;;;;2100781;28;1427;-84
2021/08/10 00:08:56;;;;;;;;;;;;;;;;;;2097963;28;1227;-84
2021/08/10 00:09:58;;;;;;;;;;;;;;;;;;2100099;28;1632;-83
2021/08/10 00:11:01;;;;;;;;;;;;;;;;;;2100135;28;1539;-84
2021/08/10 00:12:01;;;;;;;;;;;;;;;;;;2100628;28;1211;-83
2021/08/10 00:13:04;;;;;;;;;;;;;;;;;;2091918;28;2066;-83
2021/08/10 00:14:04;;;;;;;;;;;;;;;;;;2100506;28;1906;-83
2021/08/10 00:15:09;;;;;;;;;;;;;;;;;;2108563;28;1823;-83
2021/08/10 00:16:10;;;;;;;;;;;;;;;;;;2100446;28;1358;-84
2021/08/10 00:17:11;;;;;;;;;;;;;;;;;;2100469;28;1562;-84
2021/08/10 00:18:12;;;;;;;;;;;;;;;;;;2100884;28;1258;-84
2021/08/10 00:19:14;;;;;;;;;;;;;;;;;;2108974;28;1532;-83
2021/08/10 00:20:15;;;;;;;;;;;;;;;;;;2091786;28;1354;-83
2021/08/10 00:21:17;;;;;;;;;;;;;;;;;;2100558;28;1713;-83
2021/08/10 00:22:18;;;;;;;;;;;;;;;;;;2109398;27;2219;-84
2021/08/10 00:23:20;;;;;;;;;;;;;;;;;;2125929;27;1229;-83
2021/08/10 00:24:21;;;;;;;;;;;;;;;;;;2117021;28;1694;-84
2021/08/10 00:25:24;;;;;;;;;;;;;;;;;;2108862;28;1250;-84
2021/08/10 00:26:25;;;;;;;;;;;;;;;;;;2101084;28;2129;-84
2021/08/10 00:27:27;;;;;;;;;;;;;;;;;;2100498;28;1909;-83
2021/08/10 00:28:27;;;;;;;;;;;;;;;;;;2108997;28;1772;-83
2021/08/10 00:29:29;;;;;;;;;;;;;;;;;;2100496;28;1361;-83
2021/08/10 00:30:31;;;;;;;;;;;;;;;;;;2102677;28;835;-83
2021/08/10 00:31:33;;;;;;;;;;;;;;;;;;2100510;28;1536;-82
2021/08/10 00:32:34;;;;;;;;;;;;;;;;;;2097453;28;1893;-83
2021/08/10 00:33:39;;;;;;;;;;;;;;;;;;2109019;28;1639;-83
2021/08/10 00:34:40;;;;;;;;;;;;;;;;;;2108677;28;1287;-83
2021/08/10 00:35:44;;;;;;;;;;;;;;;;;;2100808;28;1352;-83
2021/08/10 00:36:46;;;;;;;;;;;;;;;;;;2100827;28;1496;-83
2021/08/10 00:37:49;;;;;;;;;;;;;;;;;;2104912;28;2073;-82
2021/08/10 00:38:50;;;;;;;;;;;;;;;;;;2100502;28;1231;-83
2021/08/10 00:39:53;;;;;;;;;;;;;;;;;;2100838;28;1412;-83
2021/08/10 00:40:55;;;;;;;;;;;;;;;;;;2100026;28;1573;-82
2021/08/10 00:41:57;;;;;;;;;;;;;;;;;;2100987;28;1550;-83
2021/08/10 00:43:09;;;;;;;;;;;;;;;;;;2108569;28;1723;-83
2021/08/10 00:44:10;;;;;;;;;;;;;;;;;;2108736;28;1179;-84
2021/08/10 00:45:12;;;;;;;;;;;;;;;;;;2100366;28;1310;-83
2021/08/10 00:46:16;;;;;;;;;;;;;;;;;;2101087;28;1705;-84
2021/08/10 00:47:18;;;;;;;;;;;;;;;;;;2100393;28;1951;-83
2021/08/10 00:48:20;;;;;;;;;;;;;;;;;;2108618;28;1472;-84
2021/08/10 00:49:23;;;;;;;;;;;;;;;;;;2100422;28;1570;-84
2021/08/10 00:50:25;;;;;;;;;;;;;;;;;;2100601;28;1570;-85
2021/08/10 00:51:29;;;;;;;;;;;;;;;;;;2108647;28;1328;-84
2021/08/10 00:52:36;;;;;;;;;;;;;;;;;;2108724;28;1261;-82
2021/08/10 00:53:39;;;;;;;;;;;;;;;;;;2100540;28;1321;-84
2021/08/10 00:54:42;;;;;;;;;;;;;;;;;;2108764;28;1959;-83
2021/08/10 00:55:48;;;;;;;;;;;;;;;;;;2110303;28;2070;-84
2021/08/10 00:56:52;;;;;;;;;;;;;;;;;;2117629;28;1453;-83
2021/08/10 00:57:58;;;;;;;;;;;;;;;;;;2110551;28;2012;-82
2021/08/10 00:59:02;;;;;;;;;;;;;;;;;;2108326;28;1248;-83
2021/08/10 01:00:08;;;;;;;;;;;;;;;;;;2101325;28;1537;-84
2021/08/10 01:01:11;;;;;;;;;;;;;;;;;;2100375;28;1457;-84
2021/08/10 01:02:13;;;;;;;;;;;;;;;;;;2100531;28;1294;-84
2021/08/10 01:03:17;;;;;;;;;;;;;;;;;;2092343;28;1092;-84
2021/08/10 01:04:18;;;;;;;;;;;;;;;;;;2091864;28;1303;-84
2021/08/10 01:05:22;;;;;;;;;;;;;;;;;;2100716;28;1285;-83
2021/08/10 01:06:27;;;;;;;;;;;;;;;;;;2115330;28;1326;-83
2021/08/10 01:07:32;;;;;;;;;;;;;;;;;;2115051;28;1238;-84
2021/08/10 01:08:39;;;;;;;;;;;;;;;;;;2100040;28;1334;-83
2021/08/10 01:09:45;;;;;;;;;;;;;;;;;;2100906;28;1184;-84
2021/08/10 01:10:52;;;;;;;;;;;;;;;;;;2116564;28;1349;-84
2021/08/10 01:11:56;;;;;;;;;;;;;;;;;;2107347;28;1286;-83
2021/08/10 01:13:03;;;;;;;;;;;;;;;;;;2100270;28;1381;-84
2021/08/10 01:14:12;;;;;;;;;;;;;;;;;;2101246;28;1910;-88
2021/08/10 01:15:15;;;;;;;;;;;;;;;;;;2101296;28;1602;-82
2021/08/10 01:16:22;;;;;;;;;;;;;;;;;;2100374;28;1546;-83
2021/08/10 01:17:31;;;;;;;;;;;;;;;;;;2109109;28;1947;-83
2021/08/10 01:18:35;;;;;;;;;;;;;;;;;;2107639;28;1309;-83
2021/08/10 01:20:02;;;;;;;;;;;;;;;;;;2092184;28;1428;-83
2021/08/10 01:21:15;;;;;;;;;;;;;;;;;;2095433;28;1134;-83
2021/08/10 01:22:25;;;;;;;;;;;;;;;;;;2095221;28;1854;-84
2021/08/10 01:23:30;;;;;;;;;;;;;;;;;;2108690;28;1463;-84
2021/08/10 01:24:38;;;;;;;;;;;;;;;;;;2109111;28;1504;-83
2021/08/10 01:25:50;;;;;;;;;;;;;;;;;;2109813;27;1389;-83
2021/08/10 01:27:02;;;;;;;;;;;;;;;;;;2125535;27;783;-84
2021/08/10 01:28:20;;;;;;;;;;;;;;;;;;2118068;27;1390;-84
2021/08/10 01:29:29;;;;;;;;;;;;;;;;;;2119513;27;1535;-84
2021/08/10 01:30:34;;;;;;;;;;;;;;;;;;2116293;28;1410;-85
2021/08/10 01:31:40;;;;;;;;;;;;;;;;;;2100625;28;1619;-84
2021/08/10 01:32:46;;;;;;;;;;;;;;;;;;2104775;28;1862;-83
2021/08/10 01:33:51;;;;;;;;;;;;;;;;;;2100574;28;1281;-84
2021/08/10 01:34:54;;;;;;;;;;;;;;;;;;2100165;28;1917;-84
2021/08/10 01:35:58;;;;;;;;;;;;;;;;;;2103560;28;1858;-84
2021/08/10 01:37:03;;;;;;;;;;;;;;;;;;2108155;28;1298;-84
2021/08/10 01:38:05;;;;;;;;;;;;;;;;;;2114433;27;2033;-83
2021/08/10 01:39:07;;;;;;;;;;;;;;;;;;2116879;27;1393;-84
2021/08/10 01:40:17;;;;;;;;;;;;;;;;;;2117596;27;1492;-84
2021/08/10 01:41:25;;;;;;;;;;;;;;;;;;2117510;27;1428;-83
2021/08/10 01:42:28;;;;;;;;;;;;;;;;;;2124876;27;2354;-82
2021/08/10 01:43:33;;;;;;;;;;;;;;;;;;2117327;27;1159;-84
2021/08/10 01:44:36;;;;;;;;;;;;;;;;;;2116724;27;1205;-84
2021/08/10 01:45:42;;;;;;;;;;;;;;;;;;2116154;28;1274;-83
2021/08/10 01:46:50;;;;;;;;;;;;;;;;;;2108918;28;1366;-83
2021/08/10 01:47:51;;;;;;;;;;;;;;;;;;2112557;28;2037;-83
2021/08/10 01:48:56;;;;;;;;;;;;;;;;;;2108100;28;1235;-83
2021/08/10 01:49:59;;;;;;;;;;;;;;;;;;2099926;28;1736;-84
2021/08/10 01:51:01;;;;;;;;;;;;;;;;;;2108096;28;1408;-83
2021/08/10 01:52:05;;;;;;;;;;;;;;;;;;2108579;28;1396;-83
2021/08/10 01:53:07;;;;;;;;;;;;;;;;;;2107576;28;2115;-84
2021/08/10 01:54:10;;;;;;;;;;;;;;;;;;2107665;28;1373;-84
2021/08/10 01:55:11;;;;;;;;;;;;;;;;;;2108495;28;1746;-83
2021/08/10 01:56:14;;;;;;;;;;;;;;;;;;2107675;28;1299;-84
2021/08/10 01:57:21;;;;;;;;;;;;;;;;;;2100833;28;1906;-83
2021/08/10 01:58:24;;;;;;;;;;;;;;;;;;2108496;28;1368;-83
2021/08/10 01:59:28;;;;;;;;;;;;;;;;;;2109059;28;1371;-83
2021/08/10 02:00:29;;;;;;;;;;;;;;;;;;2107961;28;1446;-83
2021/08/10 02:01:34;;;;;;;;;;;;;;;;;;2103441;28;1384;-83
2021/08/10 02:02:36;;;;;;;;;;;;;;;;;;2099751;28;1449;-82
2021/08/10 02:03:50;;;;;;;;;;;;;;;;;;2109904;28;1339;-83
2021/08/10 02:04:52;;;;;;;;;;;;;;;;;;2108060;28;1412;-82
2021/08/10 02:05:55;;;;;;;;;;;;;;;;;;2116162;28;1227;-83
2021/08/10 02:07:03;;;;;;;;;;;;;;;;;;2109096;28;1306;-83
2021/08/10 02:08:06;;;;;;;;;;;;;;;;;;2108134;28;1489;-83
2021/08/10 02:09:11;;;;;;;;;;;;;;;;;;2108233;28;1363;-82
2021/08/10 02:10:13;;;;;;;;;;;;;;;;;;2108466;28;1420;-83
2021/08/10 02:11:16;;;;;;;;;;;;;;;;;;2107858;28;1206;-84
2021/08/10 02:12:18;;;;;;;;;;;;;;;;;;2107968;27;2157;-84
2021/08/10 02:13:19;;;;;;;;;;;;;;;;;;2108480;28;1345;-83
2021/08/10 02:14:25;;;;;;;;;;;;;;;;;;2108383;28;1906;-84
2021/08/10 02:15:29;;;;;;;;;;;;;;;;;;2109033;28;1387;-83
2021/08/10 02:16:38;;;;;;;;;;;;;;;;;;2100420;28;1456;-83
2021/08/10 02:17:45;;;;;;;;;;;;;;;;;;2100236;28;1787;-82
2021/08/10 02:18:53;;;;;;;;;;;;;;;;;;2108199;28;1378;-82
2021/08/10 02:19:59;;;;;;;;;;;;;;;;;;2100425;28;1502;-83
2021/08/10 02:21:02;;;;;;;;;;;;;;;;;;2111076;28;2117;-84
2021/08/10 02:22:05;;;;;;;;;;;;;;;;;;2108245;28;1134;-83
2021/08/10 02:23:12;;;;;;;;;;;;;;;;;;2108298;28;1962;-83
2021/08/10 02:24:20;;;;;;;;;;;;;;;;;;2106245;28;1180;-84
2021/08/10 02:25:22;;;;;;;;;;;;;;;;;;2107681;28;1223;-83
2021/08/10 02:26:34;;;;;;;;;;;;;;;;;;2108918;28;1318;-84
2021/08/10 02:27:38;;;;;;;;;;;;;;;;;;2107970;28;2032;-84
2021/08/10 02:28:41;;;;;;;;;;;;;;;;;;2099659;28;1609;-84
2021/08/10 02:29:48;;;;;;;;;;;;;;;;;;2099783;28;1288;-83
2021/08/10 02:30:53;;;;;;;;;;;;;;;;;;2108202;28;1645;-84
2021/08/10 02:32:05;;;;;;;;;;;;;;;;;;2108236;28;1378;-84
2021/08/10 02:33:13;;;;;;;;;;;;;;;;;;2115593;28;1947;-83
2021/08/10 02:34:21;;;;;;;;;;;;;;;;;;2109004;28;1298;-82
2021/08/10 02:35:25;;;;;;;;;;;;;;;;;;2108081;28;1913;-83
2021/08/10 02:36:29;;;;;;;;;;;;;;;;;;2107801;28;1289;-84
2021/08/10 02:37:31;;;;;;;;;;;;;;;;;;2107709;28;1927;-84
2021/08/10 02:38:36;;;;;;;;;;;;;;;;;;2100126;28;1376;-84
2021/08/10 02:39:38;;;;;;;;;;;;;;;;;;2108047;28;1500;-84
2021/08/10 02:40:41;;;;;;;;;;;;;;;;;;2107747;28;1547;-83
2021/08/10 02:41:43;;;;;;;;;;;;;;;;;;2099567;28;1226;-84
2021/08/10 02:42:48;;;;;;;;;;;;;;;;;;2103728;28;2037;-84
2021/08/10 02:43:49;;;;;;;;;;;;;;;;;;2116495;27;1389;-84
2021/08/10 02:44:52;;;;;;;;;;;;;;;;;;2116123;28;1289;-84
2021/08/10 02:45:55;;;;;;;;;;;;;;;;;;2108506;28;1454;-84
2021/08/10 02:46:57;;;;;;;;;;;;;;;;;;2116020;28;863;-84
2021/08/10 02:47:58;;;;;;;;;;;;;;;;;;2116183;28;2059;-84
2021/08/10 02:49:08;;;;;;;;;;;;;;;;;;2116167;28;1854;-84
2021/08/10 02:50:09;;;;;;;;;;;;;;;;;;2108489;28;1484;-84
2021/08/10 02:51:11;;;;;;;;;;;;;;;;;;2107936;28;1304;-84
2021/08/10 02:52:12;;;;;;;;;;;;;;;;;;2107592;28;1305;-84
2021/08/10 02:53:16;;;;;;;;;;;;;;;;;;2107474;28;2039;-84
2021/08/10 02:54:18;;;;;;;;;;;;;;;;;;2107605;28;1261;-84
2021/08/10 02:55:19;;;;;;;;;;;;;;;;;;2099629;28;1902;-84
2021/08/10 02:56:23;;;;;;;;;;;;;;;;;;2112658;28;2059;-84
2021/08/10 02:57:26;;;;;;;;;;;;;;;;;;2114530;28;1862;-84
2021/08/10 02:58:31;;;;;;;;;;;;;;;;;;2107876;28;1393;-84
2021/08/10 02:59:37;;;;;;;;;;;;;;;;;;2108983;28;1290;-84
2021/08/10 03:00:43;;;;;;;;;;;;;;;;;;2107967;28;1241;-84
2021/08/10 03:01:49;;;;;;;;;;;;;;;;;;2108634;28;983;-84
2021/08/10 03:02:54;;;;;;;;;;;;;;;;;;2107969;28;1891;-83
2021/08/10 03:03:56;;;;;;;;;;;;;;;;;;2108506;28;1614;-83
2021/08/10 03:05:03;;;;;;;;;;;;;;;;;;2107762;28;1223;-82
2021/08/10 03:06:07;;;;;;;;;;;;;;;;;;2108674;28;1409;-84
2021/08/10 03:07:11;;;;;;;;;;;;;;;;;;2108345;28;1774;-84
2021/08/10 03:08:19;;;;;;;;;;;;;;;;;;2107374;28;1216;-84
2021/08/10 03:09:21;;;;;;;;;;;;;;;;;;2109033;28;1424;-83
2021/08/10 03:10:24;;;;;;;;;;;;;;;;;;2116426;28;1320;-84
2021/08/10 03:11:28;;;;;;;;;;;;;;;;;;2107519;28;1209;-84
2021/08/10 03:12:31;;;;;;;;;;;;;;;;;;2107079;28;1894;-84
2021/08/10 03:13:36;;;;;;;;;;;;;;;;;;2107707;28;1300;-83
2021/08/10 03:14:37;;;;;;;;;;;;;;;;;;2107899;28;1232;-83
2021/08/10 03:15:40;;;;;;;;;;;;;;;;;;2116005;28;1988;-83
2021/08/10 03:16:43;;;;;;;;;;;;;;;;;;2107724;28;1247;-84
2021/08/10 03:17:45;;;;;;;;;;;;;;;;;;2111890;28;2028;-83
2021/08/10 03:18:48;;;;;;;;;;;;;;;;;;2116163;28;1363;-83
2021/08/10 03:19:50;;;;;;;;;;;;;;;;;;2116053;28;1249;-82
2021/08/10 03:20:57;;;;;;;;;;;;;;;;;;2116125;28;1209;-82
2021/08/10 03:21:58;;;;;;;;;;;;;;;;;;2117002;28;1170;-83
2021/08/10 03:23:01;;;;;;;;;;;;;;;;;;2115908;28;1340;-83
2021/08/10 03:24:04;;;;;;;;;;;;;;;;;;2116300;28;1607;-83
2021/08/10 03:25:06;;;;;;;;;;;;;;;;;;2124478;28;1359;-83
2021/08/10 03:26:08;;;;;;;;;;;;;;;;;;2116528;28;1380;-85
2021/08/10 03:27:11;;;;;;;;;;;;;;;;;;2116169;28;1407;-83
2021/08/10 03:28:12;;;;;;;;;;;;;;;;;;2099378;28;2033;-84
2021/08/10 03:29:16;;;;;;;;;;;;;;;;;;2108120;28;1303;-84
2021/08/10 03:30:18;;;;;;;;;;;;;;;;;;2116344;28;891;-83
2021/08/10 03:31:21;;;;;;;;;;;;;;;;;;2116177;28;1757;-83
2021/08/10 03:32:24;;;;;;;;;;;;;;;;;;2108205;28;1485;-83
2021/08/10 03:33:28;;;;;;;;;;;;;;;;;;2115882;28;1507;-82
2021/08/10 03:34:31;;;;;;;;;;;;;;;;;;2109424;28;1568;-83
2021/08/10 03:35:32;;;;;;;;;;;;;;;;;;2109650;28;1918;-83
2021/08/10 03:36:35;;;;;;;;;;;;;;;;;;2109298;28;1935;-83
2021/08/10 03:37:37;;;;;;;;;;;;;;;;;;2108771;28;1862;-83
2021/08/10 03:38:39;;;;;;;;;;;;;;;;;;2117558;28;1591;-83
2021/08/10 03:39:40;;;;;;;;;;;;;;;;;;2109326;28;1192;-83
2021/08/10 03:40:43;;;;;;;;;;;;;;;;;;2100742;28;1436;-81
2021/08/10 03:41:45;;;;;;;;;;;;;;;;;;2109141;28;1474;-81
2021/08/10 03:42:46;;;;;;;;;;;;;;;;;;2108985;28;1939;-81
2021/08/10 03:43:48;;;;;;;;;;;;;;;;;;2117902;28;1733;-82
2021/08/10 03:44:50;;;;;;;;;;;;;;;;;;2109410;28;1528;-81
2021/08/10 03:45:53;;;;;;;;;;;;;;;;;;2100888;28;1382;-81
2021/08/10 03:46:56;;;;;;;;;;;;;;;;;;2117375;28;1608;-82
2021/08/10 03:47:59;;;;;;;;;;;;;;;;;;2109254;28;1443;-81
2021/08/10 03:49:01;;;;;;;;;;;;;;;;;;2109386;28;1567;-81
2021/08/10 03:50:03;;;;;;;;;;;;;;;;;;2109294;28;1469;-81
2021/08/10 03:51:06;;;;;;;;;;;;;;;;;;2109332;28;857;-81
2021/08/10 03:52:10;;;;;;;;;;;;;;;;;;2117616;28;1453;-82
2021/08/10 03:53:13;;;;;;;;;;;;;;;;;;2109103;28;1274;-81
2021/08/10 03:54:14;;;;;;;;;;;;;;;;;;2100963;28;1482;-81
2021/08/10 03:55:16;;;;;;;;;;;;;;;;;;2109181;28;1913;-81
2021/08/10 03:56:21;;;;;;;;;;;;;;;;;;2108726;28;1826;-82
2021/08/10 03:57:23;;;;;;;;;;;;;;;;;;2101918;28;2077;-81
2021/08/10 03:58:25;;;;;;;;;;;;;;;;;;2109338;28;1414;-81
2021/08/10 03:59:29;;;;;;;;;;;;;;;;;;2109232;28;1670;-81
2021/08/10 04:00:29;;;;;;;;;;;;;;;;;;2108867;28;1533;-81
2021/08/10 04:01:35;;;;;;;;;;;;;;;;;;2100961;28;1705;-81
2021/08/10 04:02:38;;;;;;;;;;;;;;;;;;2092662;28;1249;-82
2021/08/10 04:03:41;;;;;;;;;;;;;;;;;;2101690;28;1217;-81
2021/08/10 04:04:42;;;;;;;;;;;;;;;;;;2117493;28;1364;-82
2021/08/10 04:05:46;;;;;;;;;;;;;;;;;;2108980;28;1333;-82
2021/08/10 04:06:48;;;;;;;;;;;;;;;;;;2109432;28;1401;-82
2021/08/10 04:07:51;;;;;;;;;;;;;;;;;;2108961;28;1572;-82
2021/08/10 04:08:52;;;;;;;;;;;;;;;;;;2100688;28;1301;-82
2021/08/10 04:09:55;;;;;;;;;;;;;;;;;;2100725;28;1230;-82
2021/08/10 04:10:57;;;;;;;;;;;;;;;;;;2100835;28;1288;-82
2021/08/10 04:12:01;;;;;;;;;;;;;;;;;;2108852;28;1740;-82
2021/08/10 04:13:04;;;;;;;;;;;;;;;;;;2107302;28;2172;-82
2021/08/10 04:14:07;;;;;;;;;;;;;;;;;;2117777;28;1428;-82
2021/08/10 04:15:11;;;;;;;;;;;;;;;;;;2116993;28;1913;-83
2021/08/10 04:16:15;;;;;;;;;;;;;;;;;;2109105;28;2030;-82
2021/08/10 04:17:17;;;;;;;;;;;;;;;;;;2117287;28;1166;-83
2021/08/10 04:18:20;;;;;;;;;;;;;;;;;;2108761;28;1668;-82
2021/08/10 04:19:22;;;;;;;;;;;;;;;;;;2101180;28;1270;-82
2021/08/10 04:20:26;;;;;;;;;;;;;;;;;;2101052;28;1026;-82
2021/08/10 04:21:27;;;;;;;;;;;;;;;;;;2100444;28;1567;-82
2021/08/10 04:22:32;;;;;;;;;;;;;;;;;;2100415;28;1227;-81
2021/08/10 04:23:35;;;;;;;;;;;;;;;;;;2108962;28;1700;-83
2021/08/10 04:24:37;;;;;;;;;;;;;;;;;;2108923;28;1358;-82
2021/08/10 04:25:40;;;;;;;;;;;;;;;;;;2100539;28;1203;-82
2021/08/10 04:26:42;;;;;;;;;;;;;;;;;;2108385;28;1191;-82
2021/08/10 04:27:46;;;;;;;;;;;;;;;;;;2113364;28;1396;-81
2021/08/10 04:28:50;;;;;;;;;;;;;;;;;;2117124;28;1472;-82
2021/08/10 04:29:53;;;;;;;;;;;;;;;;;;2109090;28;1659;-82
2021/08/10 04:30:57;;;;;;;;;;;;;;;;;;2109339;28;1685;-82
2021/08/10 04:32:00;;;;;;;;;;;;;;;;;;2109011;28;1279;-82
2021/08/10 04:33:04;;;;;;;;;;;;;;;;;;2115695;27;1834;-82
2021/08/10 04:34:06;;;;;;;;;;;;;;;;;;2125885;27;1667;-82
2021/08/10 04:35:09;;;;;;;;;;;;;;;;;;2126184;27;1869;-82
2021/08/10 04:36:12;;;;;;;;;;;;;;;;;;2125650;27;1611;-82
2021/08/10 04:37:18;;;;;;;;;;;;;;;;;;2117439;28;2125;-82
2021/08/10 04:38:20;;;;;;;;;;;;;;;;;;2108739;28;1425;-81
2021/08/10 04:39:26;;;;;;;;;;;;;;;;;;2108383;28;1412;-82
2021/08/10 04:40:28;;;;;;;;;;;;;;;;;;2110694;28;1453;-81
2021/08/10 04:41:56;;;;;;;;;;;;;;;;;;2112104;28;1009;-81
2021/08/10 04:42:58;;;;;;;;;;;;;;;;;;2114684;28;1351;-82
2021/08/10 04:44:00;;;;;;;;;;;;;;;;;;2117126;28;1402;-81
2021/08/10 04:45:02;;;;;;;;;;;;;;;;;;2116841;28;1321;-82
2021/08/10 04:46:05;;;;;;;;;;;;;;;;;;2101003;28;1638;-82
2021/08/10 04:47:06;;;;;;;;;;;;;;;;;;2108879;28;1753;-81
2021/08/10 04:48:11;;;;;;;;;;;;;;;;;;2116792;28;2090;-82
2021/08/10 04:49:13;;;;;;;;;;;;;;;;;;2109165;28;1452;-81
2021/08/10 04:50:16;;;;;;;;;;;;;;;;;;2117390;28;1335;-81
2021/08/10 04:51:18;;;;;;;;;;;;;;;;;;2108625;28;1607;-82
2021/08/10 04:52:21;;;;;;;;;;;;;;;;;;2100921;28;1932;-82
2021/08/10 04:53:23;;;;;;;;;;;;;;;;;;2117276;28;1695;-81
2021/08/10 04:54:26;;;;;;;;;;;;;;;;;;2108694;28;1376;-82
2021/08/10 04:55:28;;;;;;;;;;;;;;;;;;2108662;28;1967;-81
2021/08/10 04:56:28;;;;;;;;;;;;;;;;;;2108074;28;1421;-82
2021/08/10 04:57:30;;;;;;;;;;;;;;;;;;2108264;28;1547;-81
2021/08/10 04:58:31;;;;;;;;;;;;;;;;;;2108769;28;1866;-81
2021/08/10 04:59:33;;;;;;;;;;;;;;;;;;2117204;28;1872;-81
2021/08/10 05:00:34;;;;;;;;;;;;;;;;;;2116541;28;1460;-81
2021/08/10 05:01:38;;;;;;;;;;;;;;;;;;2109033;28;1313;-81
2021/08/10 05:02:39;;;;;;;;;;;;;;;;;;2100502;28;1409;-81
2021/08/10 05:03:41;;;;;;;;;;;;;;;;;;2100451;28;1389;-81
2021/08/10 05:04:43;;;;;;;;;;;;;;;;;;2108328;28;1534;-80
2021/08/10 05:05:45;;;;;;;;;;;;;;;;;;2110611;28;1383;-81
2021/08/10 05:06:47;;;;;;;;;;;;;;;;;;2108438;28;1589;-82
2021/08/10 05:07:47;;;;;;;;;;;;;;;;;;2116692;28;1706;-82
2021/08/10 05:08:51;;;;;;;;;;;;;;;;;;2108603;28;1359;-82
2021/08/10 05:09:53;;;;;;;;;;;;;;;;;;2100320;28;1564;-82
2021/08/10 05:10:56;;;;;;;;;;;;;;;;;;2102667;28;1354;-81
2021/08/10 05:11:59;;;;;;;;;;;;;;;;;;2100930;28;1626;-87
2021/08/10 05:13:01;;;;;;;;;;;;;;;;;;2105934;28;2079;-79
2021/08/10 05:14:03;;;;;;;;;;;;;;;;;;2102091;28;1412;-79
2021/08/10 05:15:05;;;;;;;;;;;;;;;;;;2104371;28;1568;-79
2021/08/10 05:16:06;;;;;;;;;;;;;;;;;;2108155;28;1906;-78
2021/08/10 05:17:08;;;;;;;;;;;;;;;;;;2100197;28;1290;-79
2021/08/10 05:18:12;;;;;;;;;;;;;;;;;;2107878;28;1295;-79
2021/08/10 05:19:17;;;;;;;;;;;;;;;;;;2100644;28;1393;-79
2021/08/10 05:20:18;;;;;;;;;;;;;;;;;;2108604;28;1676;-79
2021/08/10 05:21:23;;;;;;;;;;;;;;;;;;2116534;28;1259;-78
2021/08/10 05:22:28;;;;;;;;;;;;;;;;;;2108079;28;2016;-79
2021/08/10 05:23:33;;;;;;;;;;;;;;;;;;2100266;28;1693;-78
2021/08/10 05:24:34;;;;;;;;;;;;;;;;;;2108493;28;1353;-78
2021/08/10 05:25:41;;;;;;;;;;;;;;;;;;2100155;28;1884;-78
2021/08/10 05:26:44;;;;;;;;;;;;;;;;;;2108644;28;1172;-78
2021/08/10 05:27:47;;;;;;;;;;;;;;;;;;2116055;28;2071;-78
2021/08/10 05:28:48;;;;;;;;;;;;;;;;;;2108221;28;1175;-78
2021/08/10 05:29:50;;;;;;;;;;;;;;;;;;2108691;28;1340;-78
2021/08/10 05:30:51;;;;;;;;;;;;;;;;;;2108155;28;2055;-78
2021/08/10 05:31:53;;;;;;;;;;;;;;;;;;2108306;28;1218;-79
2021/08/10 05:32:53;;;;;;;;;;;;;;;;;;2110625;28;2005;-79
2021/08/10 05:33:55;;;;;;;;;;;;;;;;;;2108496;28;1476;-79
2021/08/10 05:34:56;;;;;;;;;;;;;;;;;;2099924;28;1290;-78
2021/08/10 05:35:57;;;;;;;;;;;;;;;;;;2108010;28;2020;-78
2021/08/10 05:36:59;;;;;;;;;;;;;;;;;;2108102;28;1669;-78
2021/08/10 05:38:00;;;;;;;;;;;;;;;;;;2106242;28;1735;-78
2021/08/10 05:39:03;;;;;;;;;;;;;;;;;;2099814;28;1687;-79
2021/08/10 05:40:06;;;;;;;;;;;;;;;;;;2100194;28;1505;-79
2021/08/10 05:41:09;;;;;;;;;;;;;;;;;;2102746;28;1677;-78
2021/08/10 05:42:11;;;;;;;;;;;;;;;;;;2107410;28;1629;-78
2021/08/10 05:43:12;;;;;;;;;;;;;;;;;;2116071;28;1263;-78
2021/08/10 05:44:15;;;;;;;;;;;;;;;;;;2099090;28;1484;-79
2021/08/10 05:45:17;;;;;;;;;;;;;;;;;;2081554;28;1383;-78
2021/08/10 05:46:17;;;;;;;;;;;;;;;;;;2107580;28;1849;-78
2021/08/10 05:47:19;;;;;;;;;;;;;;;;;;2116069;28;1917;-79
2021/08/10 05:48:22;;;;;;;;;;;;;;;;;;2107714;28;1335;-78
2021/08/10 05:49:26;;;;;;;;;;;;;;;;;;2100235;28;1528;-78
2021/08/10 05:50:27;;;;;;;;;;;;;;;;;;2096569;28;1486;-78
2021/08/10 05:51:29;;;;;;;;;;;;;;;;;;2107825;28;1403;-78
2021/08/10 05:52:31;;;;;;;;;;;;;;;;;;2107296;28;1843;-78
2021/08/10 05:53:31;;;;;;;;;;;;;;;;;;2101775;28;1447;-79
2021/08/10 05:54:33;;;;;;;;;;;;;;;;;;2106068;28;1556;-79
2021/08/10 05:55:34;;;;;;;;;;;;;;;;;;2097628;28;1712;-79
2021/08/10 05:56:37;;;;;;;;;;;;;;;;;;2101680;28;1987;-78
2021/08/10 05:57:37;;;;;;;;;;;;;;;;;;2104719;28;2076;-78
2021/08/10 05:58:39;;;;;;;;;;;;;;;;;;2104787;28;1460;-78
2021/08/10 05:59:44;;;;;;;;;;;;;;;;;;2103852;28;1424;-78
2021/08/10 06:00:44;;;;;;;;;;;;;;;;;;2094722;28;1684;-78
2021/08/10 06:01:48;;;;;;;;;;;;;;;;;;2102019;28;1491;-78
2021/08/10 06:02:49;;;;;;;;;;;;;;;;;;2102320;28;2090;-78
2021/08/10 06:03:53;;;;;;;;;;;;;;;;;;2107161;28;1926;-78
2021/08/10 06:04:57;;;;;;;;;;;;;;;;;;2103109;28;1726;-78
2021/08/10 06:06:04;;;;;;;;;;;;;;;;;;2104165;28;1657;-78
2021/08/10 06:07:13;;;;;;;;;;;;;;;;;;2113810;28;1499;-78
2021/08/10 06:08:16;;;;;;;;;;;;;;;;;;2109136;28;1837;-78
2021/08/10 06:09:22;;;;;;;;;;;;;;;;;;2099621;28;1246;-79
2021/08/10 06:10:23;;;;;;;;;;;;;;;;;;2098994;28;1475;-78
2021/08/10 06:11:25;;;;;;;;;;;;;;;;;;2098901;28;1873;-79
2021/08/10 06:12:27;;;;;;;;;;;;;;;;;;2109138;27;1715;-78
2021/08/10 06:13:29;;;;;;;;;;;;;;;;;;2113192;28;1340;-79
2021/08/10 06:14:31;;;;;;;;;;;;;;;;;;2098204;28;1384;-79
2021/08/10 06:15:33;;;;;;;;;;;;;;;;;;2093359;28;1866;-79
2021/08/10 06:16:38;;;;;;;;;;;;;;;;;;2106477;28;1980;-79
2021/08/10 06:17:47;;;;;;;;;;;;;;;;;;2098566;28;1789;-79
2021/08/10 06:18:48;;;;;;;;;;;;;;;;;;2099031;28;1436;-79
2021/08/10 06:19:58;;;;;;;;;;;;;;;;;;2094598;28;1416;-79
2021/08/10 06:20:58;;;;;;;;;;;;;;;;;;2087602;28;2069;-80
2021/08/10 06:22:00;;;;;;;;;;;;;;;;;;2087450;28;1391;-79
2021/08/10 06:23:05;;;;;;;;;;;;;;;;;;2092786;28;1863;-79
2021/08/10 06:24:12;;;;;;;;;;;;;;;;;;2105749;28;1558;-80
2021/08/10 06:25:16;;;;;;;;;;;;;;;;;;2084209;28;1440;-80
2021/08/10 06:26:21;;;;;;;;;;;;;;;;;;2091736;28;2053;-80
2021/08/10 06:27:23;;;;;;;;;;;;;;;;;;2093418;28;1657;-80
2021/08/10 06:28:29;;;;;;;;;;;;;;;;;;2096604;28;1416;-80
2021/08/10 06:29:32;;;;;;;;;;;;;;;;;;2096782;28;1325;-80
2021/08/10 06:30:39;;;;;;;;;;;;;;;;;;2100453;28;1695;-80
2021/08/10 06:31:41;;;;;;;;;;;;;;;;;;2094086;28;1445;-79
2021/08/10 06:32:43;;;;;;;;;;;;;;;;;;2095251;28;1747;-80
2021/08/10 06:33:53;;;;;;;;;;;;;;;;;;2097236;28;1420;-80
2021/08/10 06:34:57;;;;;;;;;;;;;;;;;;2096657;28;1407;-80
2021/08/10 06:36:04;;;;;;;;;;;;;;;;;;2098459;28;2008;-80
2021/08/10 06:37:07;;;;;;;;;;;;;;;;;;2093761;28;1660;-80
2021/08/10 06:38:10;;;;;;;;;;;;;;;;;;2094379;28;1350;-80
2021/08/10 06:39:13;;;;;;;;;;;;;;;;;;2100688;28;1407;-81
2021/08/10 06:40:25;;;;;;;;;;;;;;;;;;2095550;28;1440;-79
2021/08/10 06:41:27;;;;;;;;;;;;;;;;;;2099085;28;1893;-79
2021/08/10 06:42:39;;;;;;;;;;;;;;;;;;2100394;28;1567;-79
2021/08/10 06:43:42;;;;;;;;;;;;;;;;;;2106169;28;1892;-79
2021/08/10 06:44:52;;;;;;;;;;;;;;;;;;2099884;28;1416;-79
2021/08/10 06:45:53;;;;;;;;;;;;;;;;;;2107768;28;1646;-78
2021/08/10 06:46:55;;;;;;;;;;;;;;;;;;2107651;28;1371;-78
2021/08/10 06:47:58;;;;;;;;;;;;;;;;;;2107593;28;1848;-79
2021/08/10 06:49:05;;;;;;;;;;;;;;;;;;2107061;28;1387;-79
2021/08/10 06:50:10;;;;;;;;;;;;;;;;;;2108148;28;823;-79
2021/08/10 06:51:11;;;;;;;;;;;;;;;;;;2107765;28;1549;-79
2021/08/10 06:52:14;;;;;;;;;;;;;;;;;;2106039;28;1728;-81
2021/08/10 06:53:16;;;;;;;;;;;;;;;;;;2107640;28;1278;-80
2021/08/10 06:54:23;;;;;;;;;;;;;;;;;;2087528;28;1628;-80
2021/08/10 06:55:27;;;;;;;;;;;;;;;;;;2093331;28;1559;-79
2021/08/10 06:56:29;;;;;;;;;;;;;;;;;;2107243;28;1986;-78
2021/08/10 06:57:32;;;;;;;;;;;;;;;;;;2099595;28;1649;-79
2021/08/10 06:58:34;;;;;;;;;;;;;;;;;;2107918;28;1355;-79
2021/08/10 06:59:37;;;;;;;;;;;;;;;;;;2099364;28;1199;-79
2021/08/10 07:00:40;;;;;;;;;;;;;;;;;;2099587;28;1661;-79
2021/08/10 07:01:41;;;;;;;;;;;;;;;;;;2099321;28;1304;-79
2021/08/10 07:02:44;;;;;;;;;;;;;;;;;;2093905;28;1180;-79
2021/08/10 07:03:50;;;;;;;;;;;;;;;;;;2091903;28;1350;-79
2021/08/10 07:04:54;;;;;;;;;;;;;;;;;;2099187;28;1195;-79
2021/08/10 07:05:56;;;;;;;;;;;;;;;;;;2091253;28;1350;-79
2021/08/10 07:07:04;;;;;;;;;;;;;;;;;;2099236;28;1855;-79
2021/08/10 07:08:10;;;;;;;;;;;;;;;;;;2091635;28;1302;-79
2021/08/10 07:09:15;;;;;;;;;;;;;;;;;;2099327;28;1286;-79
2021/08/10 07:10:24;;;;;;;;;;;;;;;;;;2091936;28;1422;-80
2021/08/10 07:11:25;;;;;;;;;;;;;;;;;;2099309;28;1572;-80
2021/08/10 07:12:31;;;;;;;;;;;;;;;;;;2100172;28;1685;-79
2021/08/10 07:13:32;;;;;;;;;;;;;;;;;;2099361;28;1580;-79
2021/08/10 07:14:37;;;;;;;;;;;;;;;;;;2115998;28;1541;-78
2021/08/10 07:15:39;;;;;;;;;;;;;;;;;;2109796;28;1655;-78
2021/08/10 07:16:46;;;;;;;;;;;;;;;;;;2091974;28;1985;-78
2021/08/10 07:17:47;;;;;;;;;;;;;;;;;;2095471;28;1725;-78
2021/08/10 07:18:56;;;;;;;;;;;;;;;;;;2105139;28;1547;-78
2021/08/10 07:19:58;;;;;;;;;;;;;;;;;;2099396;28;1709;-78
2021/08/10 07:21:01;;;;;;;;;;;;;;;;;;2096278;28;1680;-78
2021/08/10 07:22:03;;;;;;;;;;;;;;;;;;2107818;28;1823;-79